sensor_id;sensor_type;location;lat;lon;timestamp;P1;durP1;ratioP1;P2;durP2;ratioP2
23676;SDS011;31493;49.058;12.190;2023-10-08T00:02:09;5.63;;;3.42;;
23676;SDS011;31493;49.058;12.190;2023-10-08T00:04:40;9.98;;;3.45;;
23676;SDS011;31493;49.058;12.190;2023-10-08T00:07:09;8.38;;;3.78;;
23676;SDS011;31493;49.058;12.190;2023-10-08T00:09:38;7.95;;;4.13;;
23676;SDS011;31493;49.058;12.190;2023-10-08T00:12:05;6.32;;;3.60;;
23676;SDS011;31493;49.058;12.190;2023-10-08T00:14:34;9.13;;;3.75;;
23676;SDS011;31493;49.058;12.190;2023-10-08T00:17:10;8.68;;;3.50;;
23676;SDS011;31493;49.058;12.190;2023-10-08T00:19:38;7.65;;;3.63;;
23676;SDS011;31493;49.058;12.190;2023-10-08T00:22:05;8.50;;;3.80;;
23676;SDS011;31493;49.058;12.190;2023-10-08T00:24:33;7.30;;;3.67;;
23676;SDS011;31493;49.058;12.190;2023-10-08T00:27:01;7.18;;;3.70;;
23676;SDS011;31493;49.058;12.190;2023-10-08T00:29:32;8.60;;;3.55;;
23676;SDS011;31493;49.058;12.190;2023-10-08T00:31:59;10.10;;;3.65;;
23676;SDS011;31493;49.058;12.190;2023-10-08T00:34:37;9.93;;;4.00;;
23676;SDS011;31493;49.058;12.190;2023-10-08T00:37:07;9.07;;;3.75;;
23676;SDS011;31493;49.058;12.190;2023-10-08T00:39:35;6.20;;;3.55;;
23676;SDS011;31493;49.058;12.190;2023-10-08T00:42:05;11.23;;;3.50;;
23676;SDS011;31493;49.058;12.190;2023-10-08T00:44:33;10.68;;;3.92;;
23676;SDS011;31493;49.058;12.190;2023-10-08T00:47:07;11.55;;;4.38;;
23676;SDS011;31493;49.058;12.190;2023-10-08T00:49:37;6.93;;;3.50;;
23676;SDS011;31493;49.058;12.190;2023-10-08T00:52:30;6.35;;;3.70;;
23676;SDS011;31493;49.058;12.190;2023-10-08T00:55:04;7.50;;;3.67;;
23676;SDS011;31493;49.058;12.190;2023-10-08T00:57:48;9.15;;;3.97;;
23676;SDS011;31493;49.058;12.190;2023-10-08T01:00:23;10.15;;;4.22;;
23676;SDS011;31493;49.058;12.190;2023-10-08T01:02:57;9.27;;;4.03;;
23676;SDS011;31493;49.058;12.190;2023-10-08T01:05:26;8.68;;;3.85;;
23676;SDS011;31493;49.058;12.190;2023-10-08T01:08:08;7.07;;;3.95;;
23676;SDS011;31493;49.058;12.190;2023-10-08T01:10:38;8.65;;;4.07;;
23676;SDS011;31493;49.058;12.190;2023-10-08T01:13:10;10.85;;;3.88;;
23676;SDS011;31493;49.058;12.190;2023-10-08T01:15:41;7.95;;;4.00;;
23676;SDS011;31493;49.058;12.190;2023-10-08T01:18:10;8.27;;;3.70;;
23676;SDS011;31493;49.058;12.190;2023-10-08T01:20:41;12.57;;;4.18;;
23676;SDS011;31493;49.058;12.190;2023-10-08T01:23:18;7.93;;;3.97;;
23676;SDS011;31493;49.058;12.190;2023-10-08T01:25:48;10.20;;;4.07;;
23676;SDS011;31493;49.058;12.190;2023-10-08T01:28:16;10.85;;;3.85;;
23676;SDS011;31493;49.058;12.190;2023-10-08T01:30:51;7.65;;;3.90;;
23676;SDS011;31493;49.058;12.190;2023-10-08T01:33:20;6.95;;;3.40;;
23676;SDS011;31493;49.058;12.190;2023-10-08T01:35:53;6.25;;;3.70;;
23676;SDS011;31493;49.058;12.190;2023-10-08T01:38:29;7.25;;;3.78;;
23676;SDS011;31493;49.058;12.190;2023-10-08T01:40:58;7.10;;;3.67;;
23676;SDS011;31493;49.058;12.190;2023-10-08T01:43:29;8.63;;;3.83;;
23676;SDS011;31493;49.058;12.190;2023-10-08T01:45:56;9.95;;;4.05;;
23676;SDS011;31493;49.058;12.190;2023-10-08T01:48:23;12.80;;;4.10;;
23676;SDS011;31493;49.058;12.190;2023-10-08T01:50:54;7.43;;;3.85;;
23676;SDS011;31493;49.058;12.190;2023-10-08T01:53:21;8.77;;;3.47;;
23676;SDS011;31493;49.058;12.190;2023-10-08T01:55:49;11.43;;;4.05;;
23676;SDS011;31493;49.058;12.190;2023-10-08T01:58:19;6.55;;;3.40;;
23676;SDS011;31493;49.058;12.190;2023-10-08T02:00:48;9.27;;;3.70;;
23676;SDS011;31493;49.058;12.190;2023-10-08T02:03:17;7.70;;;3.95;;
23676;SDS011;31493;49.058;12.190;2023-10-08T02:05:45;10.00;;;3.58;;
23676;SDS011;31493;49.058;12.190;2023-10-08T02:08:13;10.60;;;3.28;;
23676;SDS011;31493;49.058;12.190;2023-10-08T02:10:42;10.00;;;3.60;;
23676;SDS011;31493;49.058;12.190;2023-10-08T02:13:14;8.27;;;3.80;;
23676;SDS011;31493;49.058;12.190;2023-10-08T02:15:43;7.60;;;3.58;;
23676;SDS011;31493;49.058;12.190;2023-10-08T02:18:13;7.57;;;3.65;;
23676;SDS011;31493;49.058;12.190;2023-10-08T02:20:40;9.85;;;3.90;;
23676;SDS011;31493;49.058;12.190;2023-10-08T02:23:07;6.75;;;3.70;;
23676;SDS011;31493;49.058;12.190;2023-10-08T02:25:35;8.85;;;3.50;;
23676;SDS011;31493;49.058;12.190;2023-10-08T02:28:04;8.85;;;3.70;;
23676;SDS011;31493;49.058;12.190;2023-10-08T02:30:35;9.93;;;3.65;;
23676;SDS011;31493;49.058;12.190;2023-10-08T02:33:04;8.25;;;3.42;;
23676;SDS011;31493;49.058;12.190;2023-10-08T02:35:39;11.65;;;3.97;;
23676;SDS011;31493;49.058;12.190;2023-10-08T02:38:08;7.60;;;3.33;;
23676;SDS011;31493;49.058;12.190;2023-10-08T02:40:37;7.75;;;3.83;;
23676;SDS011;31493;49.058;12.190;2023-10-08T02:43:10;12.90;;;3.40;;
23676;SDS011;31493;49.058;12.190;2023-10-08T02:45:38;8.40;;;3.85;;
23676;SDS011;31493;49.058;12.190;2023-10-08T02:48:06;7.53;;;3.60;;
23676;SDS011;31493;49.058;12.190;2023-10-08T02:50:37;13.77;;;3.90;;
23676;SDS011;31493;49.058;12.190;2023-10-08T02:53:06;7.63;;;3.30;;
23676;SDS011;31493;49.058;12.190;2023-10-08T02:55:36;11.90;;;3.97;;
23676;SDS011;31493;49.058;12.190;2023-10-08T02:58:07;10.93;;;3.72;;
23676;SDS011;31493;49.058;12.190;2023-10-08T03:00:41;9.75;;;3.65;;
23676;SDS011;31493;49.058;12.190;2023-10-08T03:03:08;6.93;;;3.30;;
23676;SDS011;31493;49.058;12.190;2023-10-08T03:05:41;7.82;;;3.58;;
23676;SDS011;31493;49.058;12.190;2023-10-08T03:08:11;11.38;;;3.67;;
23676;SDS011;31493;49.058;12.190;2023-10-08T03:10:39;8.10;;;3.97;;
23676;SDS011;31493;49.058;12.190;2023-10-08T03:13:07;8.07;;;3.40;;
23676;SDS011;31493;49.058;12.190;2023-10-08T03:15:36;8.75;;;3.70;;
23676;SDS011;31493;49.058;12.190;2023-10-08T03:18:13;6.63;;;3.33;;
23676;SDS011;31493;49.058;12.190;2023-10-08T03:20:41;6.75;;;3.22;;
23676;SDS011;31493;49.058;12.190;2023-10-08T03:23:12;8.88;;;3.42;;
23676;SDS011;31493;49.058;12.190;2023-10-08T03:25:52;8.45;;;3.38;;
23676;SDS011;31493;49.058;12.190;2023-10-08T03:28:24;8.38;;;3.40;;
23676;SDS011;31493;49.058;12.190;2023-10-08T03:30:53;8.20;;;3.65;;
23676;SDS011;31493;49.058;12.190;2023-10-08T03:33:30;9.57;;;3.85;;
23676;SDS011;31493;49.058;12.190;2023-10-08T03:36:01;8.35;;;3.58;;
23676;SDS011;31493;49.058;12.190;2023-10-08T03:38:35;9.82;;;3.65;;
23676;SDS011;31493;49.058;12.190;2023-10-08T03:41:16;8.73;;;3.35;;
23676;SDS011;31493;49.058;12.190;2023-10-08T03:43:46;7.97;;;3.40;;
23676;SDS011;31493;49.058;12.190;2023-10-08T03:46:21;7.93;;;3.85;;
23676;SDS011;31493;49.058;12.190;2023-10-08T03:48:51;11.52;;;3.78;;
23676;SDS011;31493;49.058;12.190;2023-10-08T03:51:20;9.05;;;3.88;;
23676;SDS011;31493;49.058;12.190;2023-10-08T03:53:48;7.65;;;3.63;;
23676;SDS011;31493;49.058;12.190;2023-10-08T03:56:25;7.22;;;4.05;;
23676;SDS011;31493;49.058;12.190;2023-10-08T03:58:55;9.70;;;3.75;;
23676;SDS011;31493;49.058;12.190;2023-10-08T04:01:26;8.75;;;3.72;;
23676;SDS011;31493;49.058;12.190;2023-10-08T04:03:58;8.15;;;3.22;;
23676;SDS011;31493;49.058;12.190;2023-10-08T04:06:26;7.35;;;3.42;;
23676;SDS011;31493;49.058;12.190;2023-10-08T04:09:04;9.50;;;3.40;;
23676;SDS011;31493;49.058;12.190;2023-10-08T04:11:49;12.73;;;3.58;;
23676;SDS011;31493;49.058;12.190;2023-10-08T04:14:22;5.88;;;3.63;;
23676;SDS011;31493;49.058;12.190;2023-10-08T04:16:49;6.60;;;3.42;;
23676;SDS011;31493;49.058;12.190;2023-10-08T04:19:19;9.05;;;3.53;;
23676;SDS011;31493;49.058;12.190;2023-10-08T04:21:52;7.10;;;3.70;;
23676;SDS011;31493;49.058;12.190;2023-10-08T04:24:21;7.53;;;3.90;;
23676;SDS011;31493;49.058;12.190;2023-10-08T04:26:57;8.52;;;3.90;;
23676;SDS011;31493;49.058;12.190;2023-10-08T04:29:24;7.25;;;3.65;;
23676;SDS011;31493;49.058;12.190;2023-10-08T04:31:52;9.82;;;3.53;;
23676;SDS011;31493;49.058;12.190;2023-10-08T04:34:34;8.32;;;3.42;;
23676;SDS011;31493;49.058;12.190;2023-10-08T04:39:30;12.53;;;3.93;;
23676;SDS011;31493;49.058;12.190;2023-10-08T04:42:00;12.18;;;3.47;;
23676;SDS011;31493;49.058;12.190;2023-10-08T04:44:32;9.07;;;3.67;;
23676;SDS011;31493;49.058;12.190;2023-10-08T04:46:59;8.30;;;3.50;;
23676;SDS011;31493;49.058;12.190;2023-10-08T04:49:32;17.23;;;4.00;;
23676;SDS011;31493;49.058;12.190;2023-10-08T04:52:02;9.65;;;3.95;;
23676;SDS011;31493;49.058;12.190;2023-10-08T04:54:34;10.95;;;3.78;;
23676;SDS011;31493;49.058;12.190;2023-10-08T04:57:06;6.95;;;3.35;;
23676;SDS011;31493;49.058;12.190;2023-10-08T04:59:40;7.65;;;3.40;;
23676;SDS011;31493;49.058;12.190;2023-10-08T05:02:08;9.30;;;3.55;;
23676;SDS011;31493;49.058;12.190;2023-10-08T05:04:52;6.78;;;3.35;;
23676;SDS011;31493;49.058;12.190;2023-10-08T05:07:34;9.18;;;3.85;;
23676;SDS011;31493;49.058;12.190;2023-10-08T05:10:20;9.15;;;3.80;;
23676;SDS011;31493;49.058;12.190;2023-10-08T05:13:26;8.85;;;3.20;;
23676;SDS011;31493;49.058;12.190;2023-10-08T05:15:58;11.65;;;3.60;;
23676;SDS011;31493;49.058;12.190;2023-10-08T05:18:37;10.10;;;3.58;;
23676;SDS011;31493;49.058;12.190;2023-10-08T05:21:32;10.93;;;3.88;;
23676;SDS011;31493;49.058;12.190;2023-10-08T05:24:18;9.57;;;3.55;;
23676;SDS011;31493;49.058;12.190;2023-10-08T05:26:53;7.75;;;3.80;;
23676;SDS011;31493;49.058;12.190;2023-10-08T05:29:40;8.80;;;3.63;;
23676;SDS011;31493;49.058;12.190;2023-10-08T05:32:36;8.10;;;3.38;;
23676;SDS011;31493;49.058;12.190;2023-10-08T05:35:31;9.18;;;3.65;;
23676;SDS011;31493;49.058;12.190;2023-10-08T05:38:20;7.50;;;3.33;;
23676;SDS011;31493;49.058;12.190;2023-10-08T05:41:07;9.57;;;3.60;;
23676;SDS011;31493;49.058;12.190;2023-10-08T05:43:53;7.53;;;3.80;;
23676;SDS011;31493;49.058;12.190;2023-10-08T05:46:37;12.82;;;3.55;;
23676;SDS011;31493;49.058;12.190;2023-10-08T05:49:32;11.70;;;4.13;;
23676;SDS011;31493;49.058;12.190;2023-10-08T05:52:07;6.97;;;3.42;;
23676;SDS011;31493;49.058;12.190;2023-10-08T05:54:51;10.82;;;3.90;;
23676;SDS011;31493;49.058;12.190;2023-10-08T05:57:44;11.80;;;3.60;;
23676;SDS011;31493;49.058;12.190;2023-10-08T06:00:18;8.98;;;3.70;;
23676;SDS011;31493;49.058;12.190;2023-10-08T06:03:03;9.68;;;3.55;;
23676;SDS011;31493;49.058;12.190;2023-10-08T06:05:37;8.48;;;3.97;;
23676;SDS011;31493;49.058;12.190;2023-10-08T06:08:13;9.13;;;3.33;;
23676;SDS011;31493;49.058;12.190;2023-10-08T06:10:40;8.32;;;3.53;;
23676;SDS011;31493;49.058;12.190;2023-10-08T06:13:23;7.10;;;3.35;;
23676;SDS011;31493;49.058;12.190;2023-10-08T06:16:10;9.70;;;3.92;;
23676;SDS011;31493;49.058;12.190;2023-10-08T06:18:39;11.82;;;3.83;;
23676;SDS011;31493;49.058;12.190;2023-10-08T06:21:05;8.30;;;3.65;;
23676;SDS011;31493;49.058;12.190;2023-10-08T06:26:02;11.32;;;3.67;;
23676;SDS011;31493;49.058;12.190;2023-10-08T06:28:41;9.63;;;3.80;;
23676;SDS011;31493;49.058;12.190;2023-10-08T06:31:09;10.75;;;3.78;;
23676;SDS011;31493;49.058;12.190;2023-10-08T06:33:42;8.77;;;3.70;;
23676;SDS011;31493;49.058;12.190;2023-10-08T06:36:10;10.23;;;3.80;;
23676;SDS011;31493;49.058;12.190;2023-10-08T06:38:41;8.60;;;3.50;;
23676;SDS011;31493;49.058;12.190;2023-10-08T06:41:10;8.75;;;3.70;;
23676;SDS011;31493;49.058;12.190;2023-10-08T06:43:42;5.35;;;3.20;;
23676;SDS011;31493;49.058;12.190;2023-10-08T06:46:12;7.88;;;3.28;;
23676;SDS011;31493;49.058;12.190;2023-10-08T06:48:40;11.63;;;3.70;;
23676;SDS011;31493;49.058;12.190;2023-10-08T06:51:08;9.00;;;3.60;;
23676;SDS011;31493;49.058;12.190;2023-10-08T06:53:38;9.63;;;3.58;;
23676;SDS011;31493;49.058;12.190;2023-10-08T06:56:05;8.95;;;3.50;;
23676;SDS011;31493;49.058;12.190;2023-10-08T06:58:35;8.52;;;3.33;;
23676;SDS011;31493;49.058;12.190;2023-10-08T07:01:04;8.30;;;3.70;;
23676;SDS011;31493;49.058;12.190;2023-10-08T07:03:34;8.15;;;3.63;;
23676;SDS011;31493;49.058;12.190;2023-10-08T07:06:03;10.40;;;3.80;;
23676;SDS011;31493;49.058;12.190;2023-10-08T07:08:42;10.43;;;4.10;;
23676;SDS011;31493;49.058;12.190;2023-10-08T07:11:12;8.88;;;3.60;;
23676;SDS011;31493;49.058;12.190;2023-10-08T07:13:40;11.25;;;3.65;;
23676;SDS011;31493;49.058;12.190;2023-10-08T07:16:09;8.77;;;3.45;;
23676;SDS011;31493;49.058;12.190;2023-10-08T07:18:37;12.70;;;3.88;;
23676;SDS011;31493;49.058;12.190;2023-10-08T07:21:07;7.65;;;3.72;;
23676;SDS011;31493;49.058;12.190;2023-10-08T07:23:38;11.07;;;4.00;;
23676;SDS011;31493;49.058;12.190;2023-10-08T07:26:21;9.57;;;3.75;;
23676;SDS011;31493;49.058;12.190;2023-10-08T07:31:20;12.32;;;3.75;;
23676;SDS011;31493;49.058;12.190;2023-10-08T07:33:50;11.25;;;4.10;;
23676;SDS011;31493;49.058;12.190;2023-10-08T07:36:22;14.15;;;4.03;;
23676;SDS011;31493;49.058;12.190;2023-10-08T07:38:50;8.32;;;3.67;;
23676;SDS011;31493;49.058;12.190;2023-10-08T07:41:17;9.23;;;3.97;;
23676;SDS011;31493;49.058;12.190;2023-10-08T07:43:46;10.73;;;3.60;;
23676;SDS011;31493;49.058;12.190;2023-10-08T07:46:22;7.80;;;3.92;;
23676;SDS011;31493;49.058;12.190;2023-10-08T07:48:51;13.35;;;4.28;;
23676;SDS011;31493;49.058;12.190;2023-10-08T07:51:18;8.02;;;3.70;;
23676;SDS011;31493;49.058;12.190;2023-10-08T07:53:47;9.02;;;3.78;;
23676;SDS011;31493;49.058;12.190;2023-10-08T07:56:14;12.27;;;4.10;;
23676;SDS011;31493;49.058;12.190;2023-10-08T07:58:43;9.95;;;3.80;;
23676;SDS011;31493;49.058;12.190;2023-10-08T08:01:10;8.07;;;3.85;;
23676;SDS011;31493;49.058;12.190;2023-10-08T08:03:40;9.57;;;4.13;;
23676;SDS011;31493;49.058;12.190;2023-10-08T08:06:08;7.45;;;3.90;;
23676;SDS011;31493;49.058;12.190;2023-10-08T08:08:36;13.05;;;4.15;;
23676;SDS011;31493;49.058;12.190;2023-10-08T08:11:04;10.25;;;4.65;;
23676;SDS011;31493;49.058;12.190;2023-10-08T08:13:33;9.07;;;4.20;;
23676;SDS011;31493;49.058;12.190;2023-10-08T08:16:01;8.63;;;3.90;;
23676;SDS011;31493;49.058;12.190;2023-10-08T08:18:43;8.93;;;4.25;;
23676;SDS011;31493;49.058;12.190;2023-10-08T08:21:11;13.80;;;4.07;;
23676;SDS011;31493;49.058;12.190;2023-10-08T08:23:41;13.05;;;3.80;;
23676;SDS011;31493;49.058;12.190;2023-10-08T08:26:14;10.75;;;4.00;;
23676;SDS011;31493;49.058;12.190;2023-10-08T08:28:53;9.07;;;3.65;;
23676;SDS011;31493;49.058;12.190;2023-10-08T08:31:22;9.05;;;4.10;;
23676;SDS011;31493;49.058;12.190;2023-10-08T08:33:51;14.68;;;4.40;;
23676;SDS011;31493;49.058;12.190;2023-10-08T08:36:28;11.70;;;4.18;;
23676;SDS011;31493;49.058;12.190;2023-10-08T08:38:57;10.07;;;3.92;;
23676;SDS011;31493;49.058;12.190;2023-10-08T08:41:24;9.60;;;4.13;;
23676;SDS011;31493;49.058;12.190;2023-10-08T08:43:52;10.02;;;4.40;;
23676;SDS011;31493;49.058;12.190;2023-10-08T08:46:27;10.60;;;4.22;;
23676;SDS011;31493;49.058;12.190;2023-10-08T08:49:00;11.68;;;4.22;;
23676;SDS011;31493;49.058;12.190;2023-10-08T08:51:29;11.57;;;4.30;;
23676;SDS011;31493;49.058;12.190;2023-10-08T08:53:57;10.27;;;4.10;;
23676;SDS011;31493;49.058;12.190;2023-10-08T08:56:25;10.80;;;4.75;;
23676;SDS011;31493;49.058;12.190;2023-10-08T08:58:55;12.07;;;4.55;;
23676;SDS011;31493;49.058;12.190;2023-10-08T09:01:24;9.27;;;4.47;;
23676;SDS011;31493;49.058;12.190;2023-10-08T09:03:51;7.82;;;4.30;;
23676;SDS011;31493;49.058;12.190;2023-10-08T09:06:28;9.93;;;4.70;;
23676;SDS011;31493;49.058;12.190;2023-10-08T09:08:55;11.27;;;4.68;;
23676;SDS011;31493;49.058;12.190;2023-10-08T09:11:37;9.05;;;4.28;;
23676;SDS011;31493;49.058;12.190;2023-10-08T09:14:08;10.55;;;4.25;;
23676;SDS011;31493;49.058;12.190;2023-10-08T09:16:37;9.93;;;4.20;;
23676;SDS011;31493;49.058;12.190;2023-10-08T09:19:06;13.63;;;4.38;;
23676;SDS011;31493;49.058;12.190;2023-10-08T09:21:39;14.23;;;4.53;;
23676;SDS011;31493;49.058;12.190;2023-10-08T09:24:06;12.95;;;4.40;;
23676;SDS011;31493;49.058;12.190;2023-10-08T09:26:37;10.27;;;4.68;;
23676;SDS011;31493;49.058;12.190;2023-10-08T09:29:05;13.77;;;4.32;;
23676;SDS011;31493;49.058;12.190;2023-10-08T09:31:34;13.02;;;4.90;;
23676;SDS011;31493;49.058;12.190;2023-10-08T09:34:02;15.52;;;4.90;;
23676;SDS011;31493;49.058;12.190;2023-10-08T09:36:30;12.07;;;4.40;;
23676;SDS011;31493;49.058;12.190;2023-10-08T09:41:32;11.63;;;4.43;;
23676;SDS011;31493;49.058;12.190;2023-10-08T09:43:59;15.05;;;4.30;;
23676;SDS011;31493;49.058;12.190;2023-10-08T09:46:29;10.00;;;4.20;;
23676;SDS011;31493;49.058;12.190;2023-10-08T09:48:59;11.90;;;4.50;;
23676;SDS011;31493;49.058;12.190;2023-10-08T09:51:28;13.50;;;4.88;;
23676;SDS011;31493;49.058;12.190;2023-10-08T09:54:03;12.88;;;4.60;;
23676;SDS011;31493;49.058;12.190;2023-10-08T09:56:39;12.25;;;4.72;;
23676;SDS011;31493;49.058;12.190;2023-10-08T09:59:08;16.13;;;4.65;;
23676;SDS011;31493;49.058;12.190;2023-10-08T10:01:36;10.30;;;4.50;;
23676;SDS011;31493;49.058;12.190;2023-10-08T10:04:05;12.15;;;4.38;;
23676;SDS011;31493;49.058;12.190;2023-10-08T10:06:35;11.73;;;4.50;;
23676;SDS011;31493;49.058;12.190;2023-10-08T10:09:04;10.13;;;4.50;;
23676;SDS011;31493;49.058;12.190;2023-10-08T10:11:35;12.80;;;4.28;;
23676;SDS011;31493;49.058;12.190;2023-10-08T10:14:02;11.75;;;4.28;;
23676;SDS011;31493;49.058;12.190;2023-10-08T10:16:32;11.50;;;4.78;;
23676;SDS011;31493;49.058;12.190;2023-10-08T10:19:03;11.57;;;4.60;;
23676;SDS011;31493;49.058;12.190;2023-10-08T10:21:32;10.82;;;4.63;;
23676;SDS011;31493;49.058;12.190;2023-10-08T10:24:00;12.13;;;4.22;;
23676;SDS011;31493;49.058;12.190;2023-10-08T10:26:31;15.52;;;4.85;;
23676;SDS011;31493;49.058;12.190;2023-10-08T10:29:22;16.77;;;4.70;;
23676;SDS011;31493;49.058;12.190;2023-10-08T10:31:52;16.85;;;4.88;;
23676;SDS011;31493;49.058;12.190;2023-10-08T10:34:20;13.02;;;4.40;;
23676;SDS011;31493;49.058;12.190;2023-10-08T10:36:50;10.90;;;4.10;;
23676;SDS011;31493;49.058;12.190;2023-10-08T10:39:24;11.18;;;4.60;;
23676;SDS011;31493;49.058;12.190;2023-10-08T10:41:56;11.02;;;4.70;;
23676;SDS011;31493;49.058;12.190;2023-10-08T10:44:28;12.85;;;4.63;;
23676;SDS011;31493;49.058;12.190;2023-10-08T10:46:56;12.52;;;4.47;;
23676;SDS011;31493;49.058;12.190;2023-10-08T10:49:38;13.38;;;4.50;;
23676;SDS011;31493;49.058;12.190;2023-10-08T10:52:14;14.05;;;4.80;;
23676;SDS011;31493;49.058;12.190;2023-10-08T10:54:45;12.90;;;4.43;;
23676;SDS011;31493;49.058;12.190;2023-10-08T10:57:24;10.48;;;4.65;;
23676;SDS011;31493;49.058;12.190;2023-10-08T11:00:03;10.18;;;4.38;;
23676;SDS011;31493;49.058;12.190;2023-10-08T11:02:55;12.18;;;4.82;;
23676;SDS011;31493;49.058;12.190;2023-10-08T11:05:25;10.55;;;4.88;;
23676;SDS011;31493;49.058;12.190;2023-10-08T11:07:55;12.90;;;4.80;;
23676;SDS011;31493;49.058;12.190;2023-10-08T11:10:30;12.63;;;5.10;;
23676;SDS011;31493;49.058;12.190;2023-10-08T11:12:57;13.07;;;5.03;;
23676;SDS011;31493;49.058;12.190;2023-10-08T11:15:28;12.02;;;4.63;;
23676;SDS011;31493;49.058;12.190;2023-10-08T11:18:06;12.13;;;4.35;;
23676;SDS011;31493;49.058;12.190;2023-10-08T11:20:34;14.73;;;5.13;;
23676;SDS011;31493;49.058;12.190;2023-10-08T11:23:05;15.77;;;4.72;;
23676;SDS011;31493;49.058;12.190;2023-10-08T11:25:53;15.48;;;5.03;;
23676;SDS011;31493;49.058;12.190;2023-10-08T11:28:26;12.52;;;4.95;;
23676;SDS011;31493;49.058;12.190;2023-10-08T11:30:55;11.35;;;4.93;;
23676;SDS011;31493;49.058;12.190;2023-10-08T11:33:28;15.30;;;4.95;;
23676;SDS011;31493;49.058;12.190;2023-10-08T11:38:24;12.40;;;4.60;;
23676;SDS011;31493;49.058;12.190;2023-10-08T11:40:53;12.73;;;5.03;;
23676;SDS011;31493;49.058;12.190;2023-10-08T11:43:23;9.52;;;4.82;;
23676;SDS011;31493;49.058;12.190;2023-10-08T11:45:51;11.38;;;4.90;;
23676;SDS011;31493;49.058;12.190;2023-10-08T11:48:20;16.80;;;5.07;;
23676;SDS011;31493;49.058;12.190;2023-10-08T11:50:54;12.93;;;5.03;;
23676;SDS011;31493;49.058;12.190;2023-10-08T11:53:23;19.10;;;4.55;;
23676;SDS011;31493;49.058;12.190;2023-10-08T11:55:51;13.87;;;4.67;;
23676;SDS011;31493;49.058;12.190;2023-10-08T11:58:22;10.75;;;4.68;;
23676;SDS011;31493;49.058;12.190;2023-10-08T12:01:02;10.85;;;4.70;;
23676;SDS011;31493;49.058;12.190;2023-10-08T12:03:31;11.60;;;4.80;;
23676;SDS011;31493;49.058;12.190;2023-10-08T12:06:00;14.98;;;4.63;;
23676;SDS011;31493;49.058;12.190;2023-10-08T12:08:30;10.93;;;5.00;;
23676;SDS011;31493;49.058;12.190;2023-10-08T12:11:04;22.40;;;5.40;;
23676;SDS011;31493;49.058;12.190;2023-10-08T12:13:37;16.15;;;7.30;;
23676;SDS011;31493;49.058;12.190;2023-10-08T12:16:04;14.70;;;6.25;;
23676;SDS011;31493;49.058;12.190;2023-10-08T12:21:05;13.07;;;4.75;;
23676;SDS011;31493;49.058;12.190;2023-10-08T12:23:36;10.35;;;5.28;;
23676;SDS011;31493;49.058;12.190;2023-10-08T12:26:03;13.48;;;5.70;;
23676;SDS011;31493;49.058;12.190;2023-10-08T12:28:33;12.98;;;5.57;;
23676;SDS011;31493;49.058;12.190;2023-10-08T12:31:01;11.27;;;5.15;;
23676;SDS011;31493;49.058;12.190;2023-10-08T12:33:29;16.05;;;5.20;;
23676;SDS011;31493;49.058;12.190;2023-10-08T12:35:58;11.38;;;5.00;;
23676;SDS011;31493;49.058;12.190;2023-10-08T12:38:36;12.25;;;4.93;;
23676;SDS011;31493;49.058;12.190;2023-10-08T12:41:03;14.15;;;5.85;;
23676;SDS011;31493;49.058;12.190;2023-10-08T12:43:37;16.95;;;4.78;;
23676;SDS011;31493;49.058;12.190;2023-10-08T12:46:08;11.85;;;4.72;;
23676;SDS011;31493;49.058;12.190;2023-10-08T12:48:43;10.57;;;4.95;;
23676;SDS011;31493;49.058;12.190;2023-10-08T12:51:15;9.75;;;4.43;;
23676;SDS011;31493;49.058;12.190;2023-10-08T12:53:43;13.50;;;4.10;;
23676;SDS011;31493;49.058;12.190;2023-10-08T12:56:16;12.18;;;4.43;;
23676;SDS011;31493;49.058;12.190;2023-10-08T12:58:47;11.90;;;4.75;;
23676;SDS011;31493;49.058;12.190;2023-10-08T13:01:14;9.77;;;4.50;;
23676;SDS011;31493;49.058;12.190;2023-10-08T13:03:43;12.05;;;4.60;;
23676;SDS011;31493;49.058;12.190;2023-10-08T13:06:13;10.20;;;4.63;;
23676;SDS011;31493;49.058;12.190;2023-10-08T13:08:49;14.25;;;4.85;;
23676;SDS011;31493;49.058;12.190;2023-10-08T13:11:18;16.70;;;4.43;;
23676;SDS011;31493;49.058;12.190;2023-10-08T13:13:48;11.57;;;4.38;;
23676;SDS011;31493;49.058;12.190;2023-10-08T13:16:16;12.95;;;4.45;;
23676;SDS011;31493;49.058;12.190;2023-10-08T13:18:43;14.88;;;4.72;;
23676;SDS011;31493;49.058;12.190;2023-10-08T13:21:11;10.63;;;5.05;;
23676;SDS011;31493;49.058;12.190;2023-10-08T13:23:38;10.25;;;4.60;;
23676;SDS011;31493;49.058;12.190;2023-10-08T13:26:08;12.95;;;4.75;;
23676;SDS011;31493;49.058;12.190;2023-10-08T13:28:35;12.65;;;5.10;;
23676;SDS011;31493;49.058;12.190;2023-10-08T13:31:03;11.23;;;4.70;;
23676;SDS011;31493;49.058;12.190;2023-10-08T13:33:35;10.80;;;4.55;;
23676;SDS011;31493;49.058;12.190;2023-10-08T13:36:05;9.93;;;4.65;;
23676;SDS011;31493;49.058;12.190;2023-10-08T13:38:34;10.20;;;4.80;;
23676;SDS011;31493;49.058;12.190;2023-10-08T13:41:02;9.45;;;4.50;;
23676;SDS011;31493;49.058;12.190;2023-10-08T13:43:31;9.48;;;5.30;;
23676;SDS011;31493;49.058;12.190;2023-10-08T13:46:02;11.35;;;5.32;;
23676;SDS011;31493;49.058;12.190;2023-10-08T13:48:32;15.18;;;4.93;;
23676;SDS011;31493;49.058;12.190;2023-10-08T13:51:01;13.00;;;4.68;;
23676;SDS011;31493;49.058;12.190;2023-10-08T13:53:30;11.18;;;4.70;;
23676;SDS011;31493;49.058;12.190;2023-10-08T13:55:58;10.85;;;4.70;;
23676;SDS011;31493;49.058;12.190;2023-10-08T14:00:57;15.10;;;4.60;;
23676;SDS011;31493;49.058;12.190;2023-10-08T14:03:26;9.88;;;4.30;;
23676;SDS011;31493;49.058;12.190;2023-10-08T14:05:56;8.88;;;4.38;;
23676;SDS011;31493;49.058;12.190;2023-10-08T14:08:28;13.30;;;4.55;;
23676;SDS011;31493;49.058;12.190;2023-10-08T14:10:56;10.98;;;4.53;;
23676;SDS011;31493;49.058;12.190;2023-10-08T14:13:28;14.18;;;4.28;;
23676;SDS011;31493;49.058;12.190;2023-10-08T14:18:26;9.20;;;4.72;;
23676;SDS011;31493;49.058;12.190;2023-10-08T14:20:54;8.13;;;4.20;;
23676;SDS011;31493;49.058;12.190;2023-10-08T14:23:22;8.85;;;4.38;;
23676;SDS011;31493;49.058;12.190;2023-10-08T14:28:20;11.52;;;4.88;;
23676;SDS011;31493;49.058;12.190;2023-10-08T14:31:07;9.98;;;4.20;;
23676;SDS011;31493;49.058;12.190;2023-10-08T14:33:41;11.00;;;4.55;;
23676;SDS011;31493;49.058;12.190;2023-10-08T14:36:22;11.07;;;4.50;;
23676;SDS011;31493;49.058;12.190;2023-10-08T14:39:07;9.18;;;4.78;;
23676;SDS011;31493;49.058;12.190;2023-10-08T14:41:51;13.38;;;4.80;;
23676;SDS011;31493;49.058;12.190;2023-10-08T14:44:36;11.95;;;4.88;;
23676;SDS011;31493;49.058;12.190;2023-10-08T14:47:05;9.60;;;4.90;;
23676;SDS011;31493;49.058;12.190;2023-10-08T14:49:32;8.13;;;3.83;;
23676;SDS011;31493;49.058;12.190;2023-10-08T14:52:00;9.05;;;4.20;;
23676;SDS011;31493;49.058;12.190;2023-10-08T14:56:57;11.02;;;4.30;;
23676;SDS011;31493;49.058;12.190;2023-10-08T14:59:24;13.27;;;6.25;;
23676;SDS011;31493;49.058;12.190;2023-10-08T15:01:53;11.57;;;4.80;;
23676;SDS011;31493;49.058;12.190;2023-10-08T15:04:22;10.95;;;5.53;;
23676;SDS011;31493;49.058;12.190;2023-10-08T15:06:49;13.63;;;5.18;;
23676;SDS011;31493;49.058;12.190;2023-10-08T15:09:16;10.10;;;4.53;;
23676;SDS011;31493;49.058;12.190;2023-10-08T15:11:46;7.95;;;4.40;;
23676;SDS011;31493;49.058;12.190;2023-10-08T15:14:13;10.30;;;3.88;;
23676;SDS011;31493;49.058;12.190;2023-10-08T15:16:41;7.72;;;3.80;;
23676;SDS011;31493;49.058;12.190;2023-10-08T15:19:12;11.13;;;4.00;;
23676;SDS011;31493;49.058;12.190;2023-10-08T15:21:42;12.15;;;3.85;;